createdAt,value
2022-09-07T00:01:10.621Z,17.14
2022-09-07T00:04:13.844Z,17.07
2022-09-07T00:07:16.562Z,16.98
2022-09-07T00:10:19.596Z,17.03
2022-09-07T00:13:23.542Z,16.92
2022-09-07T00:16:30.963Z,16.97
2022-09-07T00:19:33.577Z,16.92
2022-09-07T00:22:36.623Z,16.85
2022-09-07T00:25:40.140Z,16.83
2022-09-07T00:28:43.856Z,16.76
2022-09-07T00:31:46.619Z,16.76
2022-09-07T00:34:51.068Z,16.77
2022-09-07T00:37:53.675Z,16.70
2022-09-07T00:40:56.764Z,16.65
2022-09-07T00:44:37.700Z,16.63
2022-09-07T00:47:46.806Z,16.66
2022-09-07T00:50:56.291Z,16.61
2022-09-07T00:54:04.754Z,16.70
2022-09-07T00:57:07.435Z,16.64
2022-09-07T01:00:10.923Z,16.51
2022-09-07T01:03:15.693Z,16.57
2022-09-07T01:06:20.095Z,16.51
2022-09-07T01:09:24.426Z,16.52
2022-09-07T01:12:27.441Z,16.54
2022-09-07T01:15:59.833Z,16.50
2022-09-07T01:19:24.834Z,16.58
2022-09-07T01:22:51.834Z,16.59
2022-09-07T01:26:16.802Z,16.59
2022-09-07T01:29:41.637Z,16.60
2022-09-07T01:33:23.022Z,16.58
2022-09-07T01:37:13.432Z,16.55
2022-09-07T01:40:36.910Z,16.53
2022-09-07T01:43:58.771Z,16.50
2022-09-07T01:47:07.112Z,16.51
2022-09-07T01:50:16.312Z,16.47
2022-09-07T01:53:27.737Z,16.44
2022-09-07T01:56:42.597Z,16.34
2022-09-07T01:59:55.003Z,16.23
2022-09-07T02:03:12.103Z,16.32
2022-09-07T02:06:20.441Z,16.38
2022-09-07T02:09:34.782Z,16.36
2022-09-07T02:12:48.972Z,16.41
2022-09-07T02:16:14.124Z,16.41
2022-09-07T02:19:19.136Z,16.41
2022-09-07T02:22:27.241Z,16.39
2022-09-07T02:25:38.165Z,16.36
2022-09-07T02:28:40.978Z,16.32
2022-09-07T02:31:44.011Z,16.34
2022-09-07T02:34:46.635Z,16.31
2022-09-07T02:37:50.689Z,16.33
2022-09-07T02:40:58.902Z,16.31
2022-09-07T02:44:05.355Z,16.33
2022-09-07T02:47:12.180Z,16.28
2022-09-07T02:50:26.951Z,16.28
2022-09-07T02:53:41.277Z,16.15
2022-09-07T02:57:05.709Z,16.19
2022-09-07T03:00:11.934Z,16.05
2022-09-07T03:03:43.086Z,16.06
2022-09-07T03:06:52.238Z,16.03
2022-09-07T03:09:58.239Z,15.99
2022-09-07T03:13:00.849Z,15.96
2022-09-07T03:16:03.820Z,16.01
2022-09-07T03:19:06.515Z,15.99
2022-09-07T03:22:09.439Z,15.95
2022-09-07T03:25:12.285Z,15.98
2022-09-07T03:28:16.094Z,15.91
2022-09-07T03:31:18.640Z,15.89
2022-09-07T03:34:21.493Z,15.88
2022-09-07T03:37:24.555Z,15.84
2022-09-07T03:40:27.879Z,15.87
2022-09-07T03:43:31.849Z,15.86
2022-09-07T03:46:35.031Z,15.82
2022-09-07T03:49:37.640Z,15.83
2022-09-07T03:52:40.556Z,15.84
2022-09-07T03:55:43.198Z,15.85
2022-09-07T03:58:47.341Z,15.80
2022-09-07T04:01:50.100Z,15.79
2022-09-07T04:04:53.084Z,15.80
2022-09-07T04:07:55.788Z,15.77
2022-09-07T04:11:00.634Z,15.75
2022-09-07T04:14:03.246Z,15.77
2022-09-07T04:17:06.203Z,15.73
2022-09-07T04:20:09.533Z,15.76
2022-09-07T04:23:12.867Z,15.75
2022-09-07T04:26:16.779Z,15.69
2022-09-07T04:29:19.676Z,15.72
2022-09-07T04:32:22.298Z,15.67
2022-09-07T04:35:25.249Z,15.64
2022-09-07T04:38:30.735Z,15.64
2022-09-07T04:41:35.002Z,15.71
2022-09-07T04:44:37.628Z,15.69
2022-09-07T04:47:40.610Z,15.74
2022-09-07T04:50:43.347Z,15.76
2022-09-07T04:53:49.477Z,15.76
2022-09-07T04:56:52.782Z,15.81
2022-09-07T04:59:55.768Z,15.71
2022-09-07T05:02:58.307Z,15.76
2022-09-07T05:06:02.271Z,16.60
2022-09-07T05:09:04.887Z,16.90
2022-09-07T05:12:07.867Z,16.61
2022-09-07T05:15:10.623Z,16.44
2022-09-07T05:18:17.003Z,16.22
2022-09-07T05:21:22.021Z,16.22
2022-09-07T05:24:26.944Z,16.19
2022-09-07T05:27:29.731Z,16.27
2022-09-07T05:37:20.532Z,16.39
2022-09-07T05:40:23.973Z,16.42
2022-09-07T05:43:26.812Z,16.49
2022-09-07T05:46:29.332Z,16.55
2022-09-07T05:49:32.493Z,16.60
2022-09-07T05:52:36.045Z,16.64
2022-09-07T05:55:38.884Z,16.70
2022-09-07T05:58:41.641Z,16.69
2022-09-07T06:01:44.559Z,16.81
2022-09-07T06:04:47.796Z,16.86
2022-09-07T06:07:50.406Z,16.98
2022-09-07T06:10:53.369Z,17.16
2022-09-07T06:13:56.006Z,17.29
2022-09-07T06:16:58.991Z,17.39
2022-09-07T06:20:02.003Z,17.50
2022-09-07T06:23:05.077Z,17.62
2022-09-07T06:26:08.375Z,17.74
2022-09-07T06:29:11.289Z,17.81
2022-09-07T06:35:36.874Z,18.09
2022-09-07T06:38:40.476Z,18.28
2022-09-07T06:41:58.864Z,18.34
2022-09-07T06:45:05.328Z,18.47
2022-09-07T06:48:08.189Z,18.59
2022-09-07T06:51:19.700Z,18.80
2022-09-07T06:57:45.368Z,19.05
2022-09-07T07:00:48.453Z,19.11
2022-09-07T07:03:53.225Z,19.27
2022-09-07T07:06:56.215Z,19.45
2022-09-07T07:09:58.754Z,19.50
2022-09-07T07:13:01.571Z,19.63
2022-09-07T07:16:12.346Z,19.80
2022-09-07T07:19:15.272Z,19.99
2022-09-07T07:22:42.934Z,20.17
2022-09-07T07:25:41.185Z,20.28
2022-09-07T07:29:01.540Z,20.42
2022-09-07T07:32:06.023Z,20.53
2022-09-07T07:35:09.206Z,20.58
2022-09-07T07:48:20.301Z,21.41
2022-09-07T07:51:23.365Z,21.78
2022-09-07T07:54:25.899Z,21.82
2022-09-07T07:57:29.141Z,22.15
2022-09-07T08:00:44.027Z,22.19
2022-09-07T08:03:54.686Z,22.31
2022-09-07T08:06:57.650Z,22.55
2022-09-07T08:10:00.491Z,22.64
2022-09-07T08:13:03.128Z,23.09
2022-09-07T08:16:06.408Z,23.14
2022-09-07T08:19:09.054Z,23.37
2022-09-07T08:22:12.186Z,23.65
2022-09-07T08:25:14.771Z,23.62
2022-09-07T08:28:17.671Z,23.86
2022-09-07T08:31:20.191Z,23.94
2022-09-07T08:34:23.017Z,24.09
2022-09-07T08:37:25.534Z,24.27
2022-09-07T08:40:28.286Z,24.59
2022-09-07T08:43:43.856Z,24.76
2022-09-07T08:46:55.892Z,24.90
2022-09-07T08:50:07.346Z,25.00
2022-09-07T08:53:17.885Z,25.32
2022-09-07T08:57:20.638Z,25.42
2022-09-07T09:00:12.014Z,25.69
2022-09-07T09:03:29.890Z,26.14
2022-09-07T09:06:58.431Z,26.24
2022-09-07T09:10:35.090Z,26.40
2022-09-07T09:13:43.972Z,26.56
2022-09-07T09:16:51.275Z,26.75
2022-09-07T09:20:12.642Z,27.00
2022-09-07T09:23:18.412Z,27.31
2022-09-07T09:26:28.830Z,27.21
2022-09-07T09:29:33.238Z,27.03
2022-09-07T09:32:41.702Z,27.47
2022-09-07T09:35:50.074Z,27.61
2022-09-07T09:38:52.928Z,27.44
2022-09-07T09:42:01.545Z,27.90
2022-09-07T09:45:21.308Z,28.36
2022-09-07T09:48:35.421Z,28.33
2022-09-07T10:05:37.900Z,29.32
2022-09-07T10:08:54.715Z,29.54
2022-09-07T10:12:06.670Z,29.55
2022-09-07T10:15:26.189Z,30.06
2022-09-07T10:18:39.845Z,30.13
2022-09-07T10:21:58.044Z,30.37
2022-09-07T10:25:02.102Z,30.56
2022-09-07T10:28:18.730Z,30.76
2022-09-07T10:31:26.084Z,30.72
2022-09-07T10:34:34.689Z,30.77
2022-09-07T10:37:49.763Z,31.04
2022-09-07T10:41:09.829Z,31.32
2022-09-07T10:44:40.853Z,30.96
2022-09-07T10:48:01.710Z,30.90
2022-09-07T10:51:14.085Z,31.15
2022-09-07T10:54:43.468Z,31.04
2022-09-07T10:57:58.302Z,31.21
2022-09-07T11:01:42.694Z,30.18
2022-09-07T11:05:02.483Z,29.22
2022-09-07T11:08:20.372Z,29.51
2022-09-07T11:15:13.070Z,31.11
2022-09-07T11:18:22.764Z,31.12
2022-09-07T11:25:31.875Z,30.48
2022-09-07T11:32:25.358Z,30.22
2022-09-07T11:35:44.231Z,29.12
2022-09-07T11:38:52.641Z,28.64
2022-09-07T11:42:49.854Z,28.48
2022-09-07T11:46:11.313Z,29.57
2022-09-07T11:49:26.617Z,30.67
2022-09-07T11:52:38.769Z,30.30
2022-09-07T11:55:45.372Z,29.35
2022-09-07T11:59:36.797Z,28.87
2022-09-07T12:03:12.049Z,28.45
2022-09-07T12:06:40.131Z,28.06
2022-09-07T12:10:20.407Z,28.44
2022-09-07T12:13:31.317Z,28.68
2022-09-07T12:17:06.650Z,28.53
2022-09-07T12:20:17.738Z,28.03
2022-09-07T12:23:29.370Z,27.72
2022-09-07T12:26:35.669Z,27.51
2022-09-07T12:29:45.258Z,27.41
2022-09-07T12:32:56.842Z,27.23
2022-09-07T12:36:02.161Z,27.06
2022-09-07T12:39:43.874Z,27.11
2022-09-07T12:42:46.485Z,28.12
2022-09-07T12:45:51.742Z,27.81
2022-09-07T12:49:22.556Z,27.55
2022-09-07T12:52:37.344Z,27.38
2022-09-07T12:56:20.726Z,27.76
2022-09-07T12:59:32.576Z,28.74
2022-09-07T13:02:53.472Z,29.23
2022-09-07T13:07:01.658Z,29.14
2022-09-07T13:09:56.273Z,29.11
2022-09-07T13:13:02.040Z,29.65
2022-09-07T13:16:11.651Z,29.78
2022-09-07T13:19:50.377Z,30.07
2022-09-07T13:22:54.480Z,30.21
2022-09-07T13:26:00.050Z,29.24
2022-09-07T13:29:04.562Z,28.59
2022-09-07T13:32:19.952Z,28.91
2022-09-07T13:35:24.620Z,29.09
2022-09-07T13:38:28.510Z,29.36
2022-09-07T13:41:38.234Z,29.38
2022-09-07T13:44:42.012Z,28.97
2022-09-07T13:47:55.072Z,28.77
2022-09-07T13:51:29.639Z,28.64
2022-09-07T13:54:42.952Z,28.36
2022-09-07T13:57:49.065Z,27.78
2022-09-07T14:00:55.570Z,27.78
2022-09-07T14:04:02.295Z,27.54
2022-09-07T14:07:16.244Z,27.34
2022-09-07T14:10:22.016Z,27.42
2022-09-07T14:13:24.530Z,27.45
2022-09-07T14:16:27.352Z,27.34
2022-09-07T14:19:43.429Z,27.28
2022-09-07T14:22:49.467Z,27.30
2022-09-07T14:26:22.042Z,27.19
2022-09-07T14:29:31.423Z,27.18
2022-09-07T14:32:34.043Z,26.97
2022-09-07T14:35:40.586Z,27.51
2022-09-07T14:42:07.594Z,27.71
2022-09-07T14:45:37.791Z,27.77
2022-09-07T14:48:41.848Z,27.81
2022-09-07T14:51:45.816Z,27.74
2022-09-07T14:54:52.721Z,27.81
2022-09-07T14:58:13.668Z,27.76
2022-09-07T15:04:38.992Z,27.62
2022-09-07T15:07:42.392Z,27.53
2022-09-07T15:11:32.799Z,27.51
2022-09-07T15:14:20.101Z,27.48
2022-09-07T15:17:47.519Z,27.40
2022-09-07T15:20:50.811Z,27.39
2022-09-07T15:23:55.200Z,27.46
2022-09-07T15:27:05.233Z,27.33
2022-09-07T15:30:10.906Z,27.33
2022-09-07T15:33:13.667Z,27.13
2022-09-07T15:36:17.220Z,27.14
2022-09-07T15:39:21.716Z,27.01
2022-09-07T15:45:51.003Z,26.80
2022-09-07T15:48:55.696Z,26.65
2022-09-07T15:52:06.169Z,26.56
2022-09-07T15:55:09.335Z,26.54
2022-09-07T15:58:13.013Z,26.45
2022-09-07T16:04:38.835Z,26.38
2022-09-07T16:11:18.516Z,26.14
2022-09-07T16:14:21.438Z,26.11
2022-09-07T16:17:34.093Z,26.01
2022-09-07T16:20:40.975Z,25.91
2022-09-07T16:23:52.181Z,25.75
2022-09-07T16:26:54.998Z,25.70
2022-09-07T16:29:57.948Z,25.54
2022-09-07T16:33:00.679Z,25.49
2022-09-07T16:36:10.194Z,25.42
2022-09-07T16:39:12.628Z,25.22
2022-09-07T16:42:16.104Z,25.19
2022-09-07T16:48:42.166Z,24.93
2022-09-07T16:51:45.825Z,24.75
2022-09-07T16:54:51.199Z,24.67
2022-09-07T17:01:18.646Z,24.42
2022-09-07T17:04:21.273Z,24.31
2022-09-07T17:07:24.137Z,24.21
2022-09-07T17:10:28.701Z,24.08
2022-09-07T17:13:33.034Z,23.84
2022-09-07T17:16:39.102Z,23.86
2022-09-07T17:19:42.604Z,23.78
2022-09-07T17:22:45.116Z,23.67
2022-09-07T17:25:47.875Z,23.58
2022-09-07T17:28:51.409Z,23.48
2022-09-07T17:35:17.647Z,23.29
2022-09-07T17:41:46.587Z,23.18
2022-09-07T17:44:52.799Z,23.17
2022-09-07T17:47:55.472Z,23.11
2022-09-07T17:51:07.334Z,23.02
2022-09-07T17:54:13.948Z,22.98
2022-09-07T17:57:16.804Z,22.94
2022-09-07T18:00:19.390Z,22.92
2022-09-07T18:03:22.351Z,22.89
2022-09-07T18:06:25.875Z,22.86
2022-09-07T18:09:28.731Z,22.81
2022-09-07T18:12:32.735Z,22.78
2022-09-07T18:15:39.806Z,22.76
2022-09-07T18:18:43.393Z,22.69
2022-09-07T18:21:47.968Z,22.67
2022-09-07T18:24:51.800Z,22.63
2022-09-07T18:31:18.074Z,22.51
2022-09-07T18:34:21.009Z,22.48
2022-09-07T18:37:23.781Z,22.47
2022-09-07T18:40:26.868Z,22.49
2022-09-07T18:43:30.976Z,22.47
2022-09-07T18:46:34.760Z,22.51
2022-09-07T18:49:37.911Z,22.57
2022-09-07T18:53:04.056Z,22.52
2022-09-07T18:56:07.528Z,22.53
2022-09-07T18:59:10.537Z,22.44
2022-09-07T19:02:14.183Z,22.37
2022-09-07T19:08:41.581Z,22.26
2022-09-07T19:11:44.602Z,22.24
2022-09-07T19:14:47.115Z,22.30
2022-09-07T19:17:49.997Z,22.34
2022-09-07T19:20:52.788Z,22.41
2022-09-07T19:23:58.216Z,22.52
2022-09-07T19:27:01.413Z,22.53
2022-09-07T19:30:04.624Z,22.51
2022-09-07T19:33:11.984Z,22.43
2022-09-07T19:36:14.922Z,22.37
2022-09-07T19:39:17.466Z,22.35
2022-09-07T19:42:20.863Z,22.35
2022-09-07T19:45:28.524Z,22.39
2022-09-07T19:48:31.666Z,22.47
2022-09-07T19:51:36.785Z,22.48
2022-09-07T19:54:40.656Z,22.53
2022-09-07T19:57:46.819Z,22.51
2022-09-07T20:00:49.819Z,22.55
2022-09-07T20:03:58.443Z,22.59
2022-09-07T20:07:01.350Z,22.60
2022-09-07T20:10:04.566Z,22.59
2022-09-07T20:13:07.931Z,22.61
2022-09-07T20:16:13.669Z,22.36
2022-09-07T20:19:16.360Z,22.60
2022-09-07T20:22:19.216Z,22.59
2022-09-07T20:25:21.749Z,22.57
2022-09-07T20:28:24.720Z,22.54
2022-09-07T20:31:27.301Z,22.48
2022-09-07T20:34:30.315Z,22.40
2022-09-07T20:37:34.156Z,22.30
2022-09-07T20:40:37.490Z,22.26
2022-09-07T20:43:40.092Z,22.11
2022-09-07T20:46:43.057Z,21.96
2022-09-07T20:49:45.718Z,22.14
2022-09-07T20:52:48.790Z,22.23
2022-09-07T20:56:03.326Z,22.26
2022-09-07T20:59:06.856Z,22.25
2022-09-07T21:02:10.263Z,22.23
2022-09-07T21:05:13.492Z,22.23
2022-09-07T21:08:16.650Z,22.18
2022-09-07T21:11:21.679Z,22.22
2022-09-07T21:14:24.211Z,22.24
2022-09-07T21:17:27.137Z,22.26
2022-09-07T21:20:29.954Z,22.32
2022-09-07T21:23:34.994Z,22.34
2022-09-07T21:26:37.800Z,22.30
2022-09-07T21:29:40.727Z,22.31
2022-09-07T21:32:43.616Z,22.34
2022-09-07T21:35:46.435Z,22.33
2022-09-07T21:38:49.174Z,22.36
2022-09-07T21:41:52.126Z,22.36
2022-09-07T21:44:54.816Z,22.33
2022-09-07T21:47:57.659Z,22.29
2022-09-07T21:51:00.341Z,22.22
2022-09-07T21:54:03.179Z,22.22
2022-09-07T21:57:05.995Z,22.20
2022-09-07T22:00:10.681Z,22.15
2022-09-07T22:03:14.390Z,22.01
2022-09-07T22:06:16.914Z,22.08
2022-09-07T22:09:19.801Z,22.07
2022-09-07T22:12:22.436Z,21.97
2022-09-07T22:15:25.463Z,22.00
2022-09-07T22:18:30.287Z,21.93
2022-09-07T22:21:33.809Z,21.96
2022-09-07T22:24:36.249Z,21.93
2022-09-07T22:27:39.636Z,21.91
2022-09-07T22:30:42.158Z,21.85
2022-09-07T22:33:46.481Z,21.72
2022-09-07T22:36:49.396Z,21.53
2022-09-07T22:39:52.598Z,21.43
2022-09-07T22:42:55.155Z,21.42
2022-09-07T22:45:59.696Z,21.34
2022-09-07T22:49:02.453Z,21.41
2022-09-07T22:52:05.392Z,21.41
2022-09-07T22:55:08.414Z,21.30
2022-09-07T22:58:11.670Z,21.22
2022-09-07T23:01:14.466Z,21.16
2022-09-07T23:04:17.381Z,21.08
2022-09-07T23:07:20.241Z,21.02
2022-09-07T23:10:23.482Z,20.98
2022-09-07T23:13:25.956Z,20.94
2022-09-07T23:16:29.141Z,20.87
2022-09-07T23:19:31.772Z,20.84
2022-09-07T23:22:34.727Z,20.81
2022-09-07T23:25:38.334Z,20.77
2022-09-07T23:28:41.265Z,20.74
2022-09-07T23:31:45.455Z,20.68
2022-09-07T23:34:48.629Z,20.62
2022-09-07T23:37:51.376Z,20.59
2022-09-07T23:40:54.781Z,20.54
2022-09-07T23:43:57.734Z,20.48
2022-09-07T23:47:00.687Z,20.46
2022-09-07T23:50:03.593Z,20.42
2022-09-07T23:53:06.898Z,20.28
2022-09-07T23:56:09.768Z,20.30
2022-09-07T23:59:12.704Z,20.17
